Aviation Digital Data Service (ADDS)

Output produced by METARs form (2120 UTC 06 December 2019)
found at http://www.aviationweather.gov/metar/data/
 
Forecast for: OPDG (DERA GHAZI , PK)
Text: TAF OPDG 061600Z 0618/0712 05005KT 4000 FU FEW120 TN06/0701Z TX24/0710Z
Forecast period: 1800 UTC 06 December 2019 to 0800 UTC 07 December 2019
Forecast type: FROM: standard forecast or significant change
Winds: from the NE (50 degrees) at 6 MPH (5 knots; 2.6 m/s)
Visibility: 2.49 miles (4.01 km)
Ceiling: at least 12,000 feet AGL
Clouds: few clouds at 12000 feet AGL
Weather: FU  (smoke)
Text: FM070800 05005KT 6000 HZ FEW120
Forecast period: 0800 to 1200 UTC 07 December 2019
Forecast type: FROM: standard forecast or significant change
Winds: from the NE (50 degrees) at 6 MPH (5 knots; 2.6 m/s)
Visibility: 4 miles (6 km)
Ceiling: at least 12,000 feet AGL
Clouds: few clouds at 12000 feet AGL
Weather: HZ  (haze)